Data for 02/19/2008

Time Sea-Level Adjusted Pressure Absolute Pressure Temperature Relative Humidity Dew Point   
(mb) (inHg) (mb) (inHg) (C) (F) (%) (C) (F)
00:05 1018 30.06 847 25.01 -2.3 27.9 64 -8.2 17.3
00:10 1018 30.06 847 25.01 -2.2 28 64 -8.1 17.3
00:15 1018 30.06 847 25.01 -2.2 28.1 63 -8.2 17.3
00:20 1018 30.06 848 25.04 -2.4 27.8 64 -8.3 17.1
00:25 1018 30.06 848 25.04 -2.6 27.3 65 -8.2 17.2
00:30 1018 30.06 848 25.04 -2.8 26.9 64 -8.7 16.4
00:35 1018 30.06 847 25.01 -2.8 26.9 64 -8.8 16.2
00:40 1018 30.06 847 25.01 -2.8 27 63 -8.8 16.2
00:45 1018 30.06 847 25.01 -2.8 27 66 -8.2 17.2
00:50 1018 30.06 847 25.01 -2.8 26.9 65 -8.5 16.7
00:55 1018 30.06 847 25.01 -2.7 27.2 65 -8.4 16.9
01:00 1018 30.06 847 25.01 -2.9 26.7 66 -8.3 17
01:05 1018 30.06 847 25.01 -3.1 26.4 67 -8.5 16.8
01:10 1018 30.06 847 25.01 -3.1 26.3 68 -8.3 17.1
01:15 1018 30.06 847 25.01 -3 26.5 66 -8.4 16.8
01:20 1018 30.06 847 25.01 -2.9 26.8 65 -8.5 16.6
01:25 1018 30.06 847 25.01 -2.8 26.9 66 -8.4 16.9
01:30 1018 30.06 847 25.01 -3 26.5 67 -8.3 17
01:35 1018 30.06 847 25.01 -3.2 26.3 66 -8.6 16.5
01:40 1018 30.06 847 25.01 -3 26.6 65 -8.8 16.2
01:45 1018 30.06 847 25.01 -3 26.7 65 -8.7 16.3
01:50 1018 30.06 847 25.01 -3.1 26.4 66 -8.7 16.4
01:55 1018 30.06 847 25.01 -2.7 27.1 63 -8.8 16.1
02:00 1018 30.06 847 25.01 -2.4 27.7 64 -8.4 16.9
02:05 1018 30.06 847 25.01 -2.8 26.9 65 -8.6 16.6
02:10 1018 30.06 847 25.01 -2.9 26.7 64 -8.9 16
02:15 1018 30.06 847 25.01 -2.5 27.6 62 -8.8 16.2
02:20 1018 30.06 847 25.01 -2.6 27.4 62 -8.8 16.1
02:25 1018 30.06 847 25.01 -2.8 27 63 -8.8 16.1
02:30 1018 30.06 847 25.01 -3 26.6 63 -9.1 15.6
02:35 1018 30.06 847 25.01 -3.2 26.3 64 -9.1 15.7
02:40 1018 30.06 847 25.01 -3.3 26.1 64 -9.2 15.4
02:45 1018 30.06 847 25.01 -3.1 26.4 64 -9 15.7
02:50 1018 30.06 847 25.01 -2.8 27 63 -8.9 15.9
02:55 1018 30.06 847 25.01 -2.9 26.7 66 -8.3 17
03:00 1018 30.06 847 25.01 -2.8 27.1 64 -8.6 16.5
03:05 1018 30.06 847 25.01 -3.2 26.2 67 -8.5 16.7
03:10 1018 30.06 847 25.01 -3.4 25.8 68 -8.5 16.6
03:15 1018 30.06 847 25.01 -3.8 25.1 69 -8.8 16.1
03:20 1018 30.06 847 25.01 -4.2 24.4 70 -8.9 16
03:25 1018 30.06 847 25.01 -2.8 26.9 60 -9.5 14.9
03:30 1018 30.06 847 25.01 -2.4 27.6 64 -8.3 17
03:35 1018 30.06 847 25.01 -3.1 26.5 65 -8.7 16.4
03:40 1018 30.06 847 25.01 -3.1 26.5 65 -8.7 16.3
03:45 1018 30.06 847 25.01 -3.3 26 66 -8.8 16.2
03:50 1018 30.06 847 25.01 -4.1 24.7 70 -8.7 16.3
03:55 1018 30.06 847 25.01 -4.9 23.1 73 -9.1 15.7
04:00 1018 30.06 847 25.01 -4.1 24.7 68 -9 15.7
04:05 1018 30.06 847 25.01 -3.6 25.6 67 -8.9 16
04:10 1018 30.06 847 25.01 -4.4 24 71 -8.9 16
04:15 1018 30.06 847 25.01 -5.2 22.7 72 -9.4 15.1
04:20 1018 30.06 847 25.01 -5.9 21.4 75 -9.7 14.6
04:25 1018 30.06 847 25.01 -5.5 22 70 -10.1 13.8
04:30 1018 30.06 847 25.01 -4.7 23.5 70 -9.4 15.1
04:35 1018 30.06 847 25.01 -4.8 23.3 69 -9.6 14.7
04:40 1018 30.06 847 25.01 -4.5 23.9 69 -9.4 15.1
04:45 1018 30.06 847 25.01 -3.8 25.2 67 -9.1 15.7
04:50 1018 30.06 847 25.01 -3.3 26 64 -9.3 15.3
04:55 1018 30.06 847 25.01 -2.7 27.2 63 -8.7 16.4
05:00 1018 30.06 847 25.01 -3.2 26.3 65 -8.8 16.1
05:05 1018 30.06 847 25.01 -3.5 25.6 65 -9.1 15.6
05:10 1018 30.06 847 25.01 -4 24.9 66 -9.4 15.1
05:15 1018 30.06 847 25.01 -4.1 24.7 66 -9.5 14.9
05:20 1018 30.06 847 25.01 -4.2 24.5 66 -9.6 14.8
05:25 1018 30.06 847 25.01 -4.5 24 67 -9.6 14.7
05:30 1018 30.06 847 25.01 -4.6 23.8 67 -9.7 14.5
05:35 1018 30.06 847 25.01 -4.5 23.9 67 -9.7 14.5
05:40 1018 30.06 847 25.01 -4.7 23.5 68 -9.7 14.6
05:45 1018 30.06 847 25.01 -4.9 23.2 68 -9.9 14.2
05:50 1018 30.06 847 25.01 -5 22.9 69 -9.9 14.2
05:55 1018 30.06 847 25.01 -5 22.9 69 -9.9 14.1
06:00 1018 30.06 847 25.01 -4.5 24 66 -10 14
06:05 1018 30.06 847 25.01 -4 24.8 64 -9.8 14.4
06:10 1018 30.06 847 25.01 -3.9 25 65 -9.6 14.7
06:15 1018 30.06 847 25.01 -4.2 24.4 66 -9.6 14.7
06:20 1018 30.06 847 25.01 -4.3 24.3 67 -9.6 14.8
06:25 1018 30.06 847 25.01 -4.5 23.8 67 -9.7 14.5
06:30 1018 30.06 847 25.01 -4.5 23.8 67 -9.7 14.6
06:35 1018 30.06 847 25.01 -4.4 24.1 65 -10 14.1
06:40 1018 30.06 847 25.01 -4.6 23.7 67 -9.8 14.4
06:45 1018 30.06 847 25.01 -4.4 24 65 -10.1 13.8
06:50 1018 30.06 847 25.01 -4.3 24.2 66 -9.9 14.3
06:55 1017 30.03 847 25.01 -4.7 23.6 66 -10 14
07:00 1017 30.03 847 25.01 -4.2 24.5 64 -10 13.9
07:05 1017 30.03 847 25.01 -4.3 24.3 66 -9.7 14.5
07:10 1017 30.03 847 25.01 -4.7 23.5 66 -10.1 13.8
07:15 1017 30.03 847 25.01 -5 23 68 -10.1 13.9
07:20 1017 30.03 847 25.01 -5.3 22.5 69 -10.2 13.7
07:25 1018 30.06 847 25.01 -4.7 23.6 67 -9.8 14.3
07:30 1018 30.06 847 25.01 -5.1 22.9 69 -9.9 14.2
07:35 1017 30.03 847 25.01 -5.1 22.8 68 -10.1 13.7
07:40 1018 30.06 847 25.01 -4.8 23.3 65 -10.3 13.4
07:45 1018 30.06 847 25.01 -4.4 24 65 -10.2 13.7
07:50 1018 30.06 847 25.01 -4.1 24.7 63 -10.1 13.7
07:55 1018 30.06 847 25.01 -4 24.8 62 -10.3 13.5
08:00 1018 30.06 847 25.01 -4.4 24 65 -10.1 13.9
08:05 1018 30.06 847 25.01 -5.4 22.3 68 -10.3 13.4
08:10 1018 30.06 847 25.01 -4.7 23.6 60 -11.3 11.6
08:15 1018 30.06 847 25.01 -2.9 26.8 54 -11 12.1
08:20 1018 30.06 847 25.01 -2.2 28.1 52 -10.7 12.7
08:25 1018 30.06 847 25.01 -1.8 28.8 51 -10.7 12.8
08:30 1018 30.06 847 25.01 -1.4 29.5 50 -10.5 13
08:35 1018 30.06 847 25.01 -1.1 30 49 -10.5 13.1
08:40 1018 30.06 847 25.01 -1.1 30 49 -10.4 13.3
08:45 1018 30.06 847 25.01 -1.3 29.6 50 -10.4 13.2
08:50 1018 30.06 847 25.01 -1.6 29 53 -10.1 13.9
08:55 1018 30.06 847 25.01 -2.1 28.2 54 -10.1 13.8
09:00 1018 30.06 847 25.01 -1.8 28.7 51 -10.6 12.9
09:05 1018 30.06 847 25.01 -1.3 29.6 49 -10.6 12.9
09:10 1018 30.06 847 25.01 -0.9 30.4 49 -10.2 13.6
09:15 1018 30.06 847 25.01 -0.7 30.8 49 -10.1 13.8
09:20 1018 30.06 847 25.01 -0.8 30.5 49 -10.1 13.8
09:25 1018 30.06 847 25.01 -0.4 31.3 46 -10.7 12.8
09:30 1018 30.06 847 25.01 -0 32 46 -10.3 13.4
09:35 1018 30.06 847 25.01 -0.2 31.6 47 -10.3 13.4
09:40 1018 30.06 847 25.01 -0.4 31.3 50 -9.7 14.6
09:45 1018 30.06 847 25.01 -0.9 30.3 49 -10.2 13.6
09:50 1018 30.06 847 25.01 -1.1 30.1 51 -10.1 13.9
09:55 1018 30.06 847 25.01 -0.7 30.7 48 -10.4 13.3
10:00 1018 30.06 847 25.01 0.1 32.1 46 -10.1 13.8
10:05 1018 30.06 847 25.01 0.5 32.9 46 -9.8 14.4
10:10 1018 30.06 847 25.01 0.7 33.2 45 -10 14.1
10:15 1018 30.06 847 25.01 0.4 32.8 44 -10.5 13.1
10:20 1018 30.06 847 25.01 0.6 33.1 44 -10.4 13.3
10:25 1018 30.06 847 25.01 0.9 33.5 42 -10.6 12.9
10:30 1018 30.06 847 25.01 1.1 34 42 -10.5 13.1
10:35 1018 30.06 847 25.01 1.8 35.2 40 -10.5 13.2
10:40 1018 30.06 847 25.01 2 35.7 39 -10.4 13.3
10:45 1018 30.06 847 25.01 2.7 36.8 35 -11.2 11.8
10:50 1018 30.06 847 25.01 3.1 37.5 38 -9.9 14.2
10:55 1018 30.06 847 25.01 3.4 38.1 35 -10.5 13
11:00 1018 30.06 847 25.01 3.3 38 35 -10.7 12.7
11:05 1018 30.06 847 25.01 2.8 37 38 -10.2 13.6
11:10 1018 30.06 847 25.01 2.7 36.9 37 -10.7 12.8
11:15 1018 30.06 847 25.01 2.5 36.6 39 -10.1 13.8
11:20 1018 30.06 847 25.01 2.9 37.1 36 -10.8 12.6
11:25 1018 30.06 847 25.01 3.2 37.7 36 -10.3 13.4
11:30 1018 30.06 847 25.01 2.6 36.7 38 -10.2 13.7
11:35 1017 30.03 847 25.01 3.1 37.5 39 -9.6 14.8
11:40 1017 30.03 847 25.01 3.2 37.8 38 -9.8 14.4
11:45 1017 30.03 847 25.01 3.9 39 38 -9.2 15.4
11:50 1017 30.03 847 25.01 4.4 39.9 36 -9.6 14.8
11:55 1017 30.03 847 25.01 4.1 39.4 37 -9.4 15
12:00 1017 30.03 846 24.98 4.2 39.5 37 -9.2 15.5
12:05 1017 30.03 846 24.98 4.7 40.5 35 -9.4 15.1
12:10 1017 30.03 846 24.98 4.6 40.4 36 -9.1 15.7
12:15 1017 30.03 846 24.98 4.6 40.3 35 -9.6 14.7
12:20 1017 30.03 846 24.98 4.6 40.3 35 -9.6 14.7
12:25 1017 30.03 846 24.98 4.7 40.4 35 -9.5 14.9
12:30 1017 30.03 846 24.98 5.3 41.6 33 -9.5 14.8
12:35 1017 30.03 846 24.98 5.2 41.3 34 -9.3 15.2
12:40 1017 30.03 846 24.98 5.3 41.6 34 -9.3 15.3
12:45 1017 30.03 846 24.98 6.1 42.9 33 -9.1 15.6
12:50 1017 30.03 846 24.98 6.4 43.5 32 -9.3 15.3
12:55 1017 30.03 846 24.98 5.8 42.5 32 -9.4 15
13:00 1016 30 846 24.98 5.9 42.5 33 -9.3 15.2
13:05 1016 30 846 24.98 6 42.8 34 -8.8 16.1
13:10 1016 30 846 24.98 6.2 43.1 35 -8.4 17
13:15 1016 30 846 24.98 6.2 43.2 32 -9.4 15.2
13:20 1016 30 845 24.95 5.9 42.6 34 -9 15.8
13:25 1016 30 845 24.95 5.6 42.1 34 -9.1 15.7
13:30 1016 30 845 24.95 6 42.8 34 -8.9 16
13:35 1016 30 845 24.95 6.2 43.1 34 -8.7 16.3
13:40 1016 30 845 24.95 6.6 43.8 32 -9.1 15.7
13:45 1016 30 845 24.95 6 42.8 34 -8.7 16.4
13:50 1016 30 845 24.95 6.1 42.9 33 -9 15.8
13:55 1016 30 845 24.95 6.8 44.3 35 -7.7 18.2
14:00 1016 30 845 24.95 7.6 45.6 32 -8.1 17.5
14:05 1016 30 845 24.95 8 46.3 32 -7.8 18
14:10 1016 30 845 24.95 8.1 46.6 31 -8 17.6
14:15 1016 30 845 24.95 8.5 47.3 29 -8.6 16.4
14:20 1016 30 845 24.95 9.3 48.7 29 -8 17.6
14:25 1016 30 845 24.95 9.4 48.9 30 -7.4 18.8
14:30 1016 30 845 24.95 9 48.2 33 -6.3 20.6
14:35 1016 30 845 24.95 9.2 48.5 30 -7.7 18.2
14:40 1016 30 845 24.95 9.1 48.4 31 -7.1 19.1
14:45 1016 30 845 24.95 9.2 48.6 29 -7.9 17.7
14:50 1016 30 845 24.95 9.6 49.2 30 -7.2 19.1
14:55 1016 30 845 24.95 9.3 48.7 30 -7.3 18.8
15:00 1016 30 845 24.95 8.9 48.1 32 -6.7 19.9
15:05 1016 30 845 24.95 9 48.2 34 -6.2 20.9
15:10 1015 29.97 845 24.95 8.8 47.8 32 -6.9 19.6
15:15 1015 29.97 845 24.95 9 48.3 33 -6.2 20.8
15:20 1015 29.97 845 24.95 9.3 48.8 32 -6.7 20
15:25 1015 29.97 845 24.95 8.6 47.5 33 -6.9 19.6
15:30 1015 29.97 845 24.95 8 46.3 32 -7.6 18.3
15:35 1015 29.97 845 24.95 8.1 46.5 31 -7.9 17.8
15:40 1015 29.97 845 24.95 8.3 46.9 32 -7.5 18.4
15:45 1015 29.97 845 24.95 8.4 47.1 32 -7.3 18.9
15:50 1015 29.97 845 24.95 9.1 48.4 32 -6.9 19.7
15:55 1015 29.97 844 24.92 9.4 48.8 30 -7.2 19.1
16:00 1015 29.97 844 24.92 9.5 49 30 -7.2 19.1
16:05 1015 29.97 844 24.92 9.5 49.1 30 -7.1 19.2
16:10 1015 29.97 844 24.92 8.8 47.8 33 -6.6 20
16:15 1015 29.97 844 24.92 8.5 47.3 31 -7.6 18.4
16:20 1015 29.97 844 24.92 8 46.4 32 -7.6 18.4
16:25 1015 29.97 844 24.92 8.4 47.2 29 -8.5 16.7
16:30 1015 29.97 844 24.92 8.7 47.7 29 -8.5 16.8
16:35 1015 29.97 844 24.92 9 48.2 30 -7.8 18
16:40 1015 29.97 844 24.92 9.3 48.7 28 -8.2 17.2
16:45 1015 29.97 844 24.92 9.1 48.4 30 -7.7 18.1
16:50 1015 29.97 844 24.92 9.4 48.9 30 -7.5 18.5
16:55 1015 29.97 844 24.92 9.6 49.3 29 -7.8 18
17:00 1015 29.97 844 24.92 9 48.1 30 -7.7 18.1
17:05 1015 29.97 844 24.92 8 46.5 32 -7.8 17.9
17:10 1015 29.97 844 24.92 8 46.4 31 -7.9 17.7
17:15 1015 29.97 844 24.92 7.8 46.1 33 -7.5 18.5
17:20 1015 29.97 844 24.92 7.8 46 33 -7.6 18.3
17:25 1015 29.97 844 24.92 8 46.4 32 -7.8 17.9
17:30 1015 29.97 844 24.92 7.5 45.4 33 -7.7 18.2
17:35 1015 29.97 844 24.92 7.3 45.1 34 -7.5 18.5
17:40 1015 29.97 844 24.92 6.8 44.2 34 -7.9 17.8
17:45 1015 29.97 844 24.92 6.1 42.9 38 -7.3 18.9
17:50 1015 29.97 844 24.92 4.8 40.6 41 -7.4 18.7
17:55 1015 29.97 844 24.92 4.2 39.6 40 -8.3 17
18:00 1015 29.97 844 24.92 3.7 38.7 40 -8.7 16.3
18:05 1015 29.97 844 24.92 3.4 38.2 38 -9.5 14.9
18:10 1015 29.97 844 24.92 3.4 38.2 38 -9.7 14.5
18:15 1015 29.97 844 24.92 3.4 38.1 40 -8.9 15.9
18:20 1015 29.97 844 24.92 2.7 36.9 42 -9 15.8
18:25 1015 29.97 844 24.92 2.1 35.9 45 -8.5 16.7
18:30 1015 29.97 844 24.92 2 35.5 44 -9.1 15.6
18:35 1015 29.97 844 24.92 1.8 35.3 43 -9.4 15.1
18:40 1015 29.97 844 24.92 1.5 34.8 43 -9.7 14.6
18:45 1015 29.97 844 24.92 1.3 34.3 43 -9.9 14.2
18:50 1015 29.97 844 24.92 1.1 33.9 44 -9.9 14.1
18:55 1015 29.97 844 24.92 1.1 33.9 41 -10.7 12.8
19:00 1015 29.97 844 24.92 1.3 34.4 41 -10.4 13.3
19:05 1015 29.97 844 24.92 1.1 34 45 -9.5 14.9
19:10 1015 29.97 844 24.92 1.2 34.1 43 -10.1 13.8
19:15 1015 29.97 844 24.92 1.2 34.2 44 -9.9 14.2
19:20 1015 29.97 844 24.92 1.1 34 43 -10.2 13.6
19:25 1015 29.97 844 24.92 1 33.9 43 -10.3 13.5
19:30 1015 29.97 844 24.92 0.9 33.6 42 -10.7 12.8
19:35 1015 29.97 844 24.92 0.9 33.6 41 -11 12.1
19:40 1015 29.97 844 24.92 0.9 33.7 40 -11.2 11.9
19:45 1015 29.97 844 24.92 0.9 33.7 42 -10.7 12.7
19:50 1015 29.97 844 24.92 0.8 33.5 39 -11.7 11
19:55 1015 29.97 844 24.92 1 33.8 39 -11.6 11.1
20:00 1015 29.97 844 24.92 1.1 34 39 -11.3 11.6
20:05 1015 29.97 844 24.92 1 33.9 40 -11.2 11.8
20:10 1015 29.97 844 24.92 0.8 33.5 40 -11.3 11.7
20:15 1015 29.97 844 24.92 0.7 33.3 40 -11.4 11.5
20:20 1015 29.97 844 24.92 0.8 33.5 40 -11.4 11.4
20:25 1015 29.97 844 24.92 0.8 33.5 40 -11.5 11.4
20:30 1015 29.97 844 24.92 0.7 33.3 40 -11.6 11.2
20:35 1015 29.97 844 24.92 0.5 33 41 -11.3 11.6
20:40 1015 29.97 844 24.92 0.6 33 40 -11.5 11.3
20:45 1015 29.97 844 24.92 0.4 32.8 41 -11.4 11.5
20:50 1015 29.97 844 24.92 -0 31.9 41 -11.9 10.5
20:55 1015 29.97 844 24.92 0.1 32.3 39 -12.1 10.2
21:00 1015 29.97 844 24.92 0.2 32.4 41 -11.7 11
21:05 1015 29.97 844 24.92 0.2 32.3 40 -12 10.5
21:10 1015 29.97 844 24.92 0.1 32.2 41 -11.6 11.1
21:15 1015 29.97 844 24.92 0.1 32.2 41 -11.6 11.1
21:20 1015 29.97 844 24.92 -0.1 31.9 43 -11.2 11.9
21:25 1015 29.97 844 24.92 -0.2 31.6 44 -11 12.1
21:30 1015 29.97 844 24.92 -0.2 31.6 43 -11.3 11.6
21:35 1015 29.97 844 24.92 -0.4 31.4 43 -11.5 11.2
21:40 1015 29.97 844 24.92 -0.6 31 42 -11.8 10.7
21:45 1015 29.97 844 24.92 -0.4 31.2 42 -11.9 10.6
21:50 1015 29.97 844 24.92 -0 31.9 41 -11.9 10.7
21:55 1015 29.97 844 24.92 0 32 39 -12.3 9.9
22:00 1015 29.97 844 24.92 0 32.1 41 -11.9 10.7
22:05 1015 29.97 844 24.92 -0.1 31.9 41 -11.8 10.8
22:10 1015 29.97 844 24.92 -0.4 31.3 39 -12.6 9.3
22:15 1015 29.97 844 24.92 -0.4 31.3 37 -13.3 8.1
22:20 1015 29.97 844 24.92 0.4 32.6 35 -13.4 7.9
22:25 1015 29.97 844 24.92 0.4 32.7 37 -12.6 9.2
22:30 1015 29.97 844 24.92 0 32.1 39 -12.2 10
22:35 1015 29.97 844 24.92 -0.2 31.6 40 -12.3 9.8
22:40 1015 29.97 844 24.92 -0.5 31.1 40 -12.5 9.4
22:45 1015 29.97 844 24.92 -0.7 30.8 40 -12.6 9.3
22:50 1015 29.97 844 24.92 -0.6 30.9 40 -12.7 9.1
22:55 1015 29.97 844 24.92 -0.7 30.8 39 -13 8.7
23:00 1015 29.97 844 24.92 -0.8 30.6 38 -13.3 8.1
23:05 1015 29.97 844 24.92 -0.7 30.7 37 -13.8 7.1
23:10 1015 29.97 844 24.92 -0.6 31 36 -13.8 7.2
23:15 1015 29.97 844 24.92 -0.6 30.9 36 -13.9 6.9
23:20 1015 29.97 844 24.92 -0.3 31.5 34 -14.2 6.5
23:25 1015 29.97 844 24.92 -0.1 31.8 35 -13.7 7.3
23:30 1015 29.97 844 24.92 -0.3 31.5 38 -13.1 8.4
23:35 1015 29.97 844 24.92 -0.9 30.4 40 -13 8.6
23:40 1015 29.97 844 24.92 -1.1 30 39 -13.3 8
23:45 1015 29.97 844 24.92 -0.9 30.4 37 -13.8 7.2
23:50 1015 29.97 844 24.92 -0.6 30.9 39 -12.9 8.8
23:55 1015 29.97 844 24.92 -0.7 30.7 39 -12.9 8.7
24:00 1015 29.97 844 24.92 -0.8 30.5 38 -13.5 7.7